Time;durP1;ratioP1;P1;durP2;ratioP2;P2;SDS_P1;SDS_P2;PMS_P1;PMS_P2;Temp;Humidity;BMP_temperature;BMP_pressure;BME280_temperature;BME280_humidity;BME280_pressure;Samples;Min_cycle;Max_cycle;Signal;HPM_P1;HPM_P2
2021/12/26 00:01:41;;;;;;;7.43;3.63;;;;;;;-5.51;86.97;100131.72;5046179;28;20092;-54
2021/12/26 00:04:07;;;;;;;6.28;3.40;;;;;;;-5.50;87.14;100128.38;5036258;28;20095;-53
2021/12/26 00:06:33;;;;;;;7.40;3.50;;;;;;;-5.50;86.79;100130.94;5036768;28;20044;-53
2021/12/26 00:09:01;;;;;;;7.10;3.28;;;;;;;-5.49;86.84;100128.41;5048796;28;20116;-52
2021/12/26 00:11:27;;;;;;;8.85;4.80;;;;;;;-5.40;85.92;100125.31;5056375;28;20033;-50
2021/12/26 00:13:55;;;;;;;8.27;3.47;;;;;;;-5.53;86.87;100118.00;5043268;28;20401;-52
2021/12/26 00:16:21;;;;;;;5.18;3.10;;;;;;;-5.54;87.41;100123.94;5040910;28;20037;-54
2021/12/26 00:18:47;;;;;;;7.43;3.42;;;;;;;-5.53;87.36;100118.00;5037354;28;20053;-52
2021/12/26 00:21:15;;;;;;;5.68;3.10;;;;;;;-5.54;87.75;100126.50;5035710;28;20125;-54
2021/12/26 00:23:41;;;;;;;7.47;3.42;;;;;;;-5.50;87.25;100118.13;5035826;28;20040;-57
2021/12/26 00:26:06;;;;;;;6.97;3.80;;;;;;;-5.55;87.39;100114.50;5034866;28;20041;-55
2021/12/26 00:28:32;;;;;;;6.30;3.33;;;;;;;-5.62;88.19;100125.34;5036021;28;20572;-52
2021/12/26 00:30:57;;;;;;;8.18;4.00;;;;;;;-5.64;89.04;100117.56;5043327;28;20132;-51
2021/12/26 00:33:24;;;;;;;5.85;3.42;;;;;;;-5.64;88.70;100119.25;5052452;28;20485;-52
2021/12/26 00:35:49;;;;;;;7.88;3.45;;;;;;;-5.63;89.61;100136.38;5053625;28;20044;-52
2021/12/26 00:38:15;;;;;;;7.47;3.90;;;;;;;-5.65;90.32;100127.75;5055633;28;20507;-53
2021/12/26 00:40:41;;;;;;;9.02;3.40;;;;;;;-5.59;91.80;100135.66;5043751;28;20103;-52
2021/12/26 00:43:07;;;;;;;7.53;4.05;;;;;;;-5.46;91.68;100137.91;5035691;28;20465;-52
2021/12/26 00:45:32;;;;;;;8.95;3.63;;;;;;;-5.45;93.89;100139.66;5035821;28;20033;-52
2021/12/26 00:47:58;;;;;;;8.82;4.07;;;;;;;-5.34;94.42;100146.06;5045326;28;20059;-52
2021/12/26 00:50:27;;;;;;;10.38;4.30;;;;;;;-5.31;94.94;100146.16;5054405;28;20040;-52
2021/12/26 00:52:52;;;;;;;10.80;3.83;;;;;;;-5.28;95.69;100147.97;5055601;28;20570;-55
2021/12/26 00:55:19;;;;;;;9.02;4.07;;;;;;;-5.22;96.14;100140.53;5055148;28;20120;-51
2021/12/26 00:57:45;;;;;;;8.20;3.70;;;;;;;-5.13;96.83;100134.88;5055550;28;20029;-53
2021/12/26 01:00:19;;;;;;;8.32;3.47;;;;;;;-5.09;97.27;100136.72;5053738;28;20064;-54
2021/12/26 01:02:45;;;;;;;10.93;4.15;;;;;;;-5.14;97.78;100133.13;5053934;28;20029;-55
2021/12/26 01:05:11;;;;;;;12.02;4.15;;;;;;;-5.10;97.58;100125.63;5055498;28;20021;-52
2021/12/26 01:10:23;;;;;;;10.07;4.43;;;;;;;-5.18;97.53;100124.47;5035483;28;20059;-54
2021/12/26 01:12:50;;;;;;;9.07;4.53;;;;;;;-5.18;97.50;100124.47;5039597;28;20037;-51
2021/12/26 01:15:17;;;;;;;8.65;4.47;;;;;;;-5.32;98.88;100123.94;5035275;28;20056;-52
2021/12/26 01:17:44;;;;;;;6.72;4.03;;;;;;;-5.29;98.72;100124.06;5035192;28;20033;-51
2021/12/26 01:20:25;;;;;;;9.65;4.53;;;;;;;-5.39;99.33;100132.19;5040561;28;20087;-54
2021/12/26 01:22:50;;;;;;;12.27;4.78;;;;;;;-5.34;98.81;100132.38;5055349;28;20029;-54
2021/12/26 01:25:16;;;;;;;11.23;5.43;;;;;;;-5.43;98.72;100125.19;5042980;28;20473;-55
2021/12/26 01:27:41;;;;;;;11.48;5.25;;;;;;;-5.34;98.00;100130.69;5034898;28;20083;-53
2021/12/26 01:30:08;;;;;;;9.55;4.22;;;;;;;-5.32;97.52;100136.72;5034711;28;20093;-51
2021/12/26 01:32:33;;;;;;;8.45;4.38;;;;;;;-5.31;97.42;100130.78;5035061;28;20041;-52
2021/12/26 01:34:58;;;;;;;7.47;3.72;;;;;;;-5.29;96.79;100131.72;5034725;28;20034;-53
2021/12/26 01:37:24;;;;;;;14.93;6.55;;;;;;;-5.29;96.29;100128.31;5034712;28;20029;-51
2021/12/26 01:39:49;;;;;;;9.07;4.53;;;;;;;-5.35;96.57;100116.13;5035334;28;20120;-54
2021/12/26 01:42:15;;;;;;;9.15;3.70;;;;;;;-5.32;96.04;100118.81;5034244;28;20392;-52
2021/12/26 01:44:41;;;;;;;6.75;4.10;;;;;;;-5.32;95.99;100110.25;5034802;28;20025;-51
2021/12/26 01:47:08;;;;;;;12.55;5.85;;;;;;;-5.31;95.12;100110.28;5034688;28;20120;-51
2021/12/26 01:49:34;;;;;;;8.27;3.53;;;;;;;-5.35;94.79;100113.56;5036581;28;20103;-51
2021/12/26 01:52:03;;;;;;;12.00;5.47;;;;;;;-5.29;94.86;100100.13;5053700;28;20045;-53
2021/12/26 01:54:43;;;;;;;14.43;6.75;;;;;;;-5.32;94.14;100112.81;5043655;28;20510;-51
2021/12/26 01:57:11;;;;;;;7.60;3.80;;;;;;;-5.43;94.52;100114.97;5034109;28;20040;-51
2021/12/26 01:59:38;;;;;;;12.90;6.20;;;;;;;-5.41;94.05;100099.66;5034393;28;20033;-51
2021/12/26 02:02:04;;;;;;;10.05;4.65;;;;;;;-5.33;93.80;100111.06;5034331;28;20040;-52
2021/12/26 02:04:30;;;;;;;5.78;3.50;;;;;;;-5.40;94.01;100109.97;5034288;28;20473;-51
2021/12/26 02:06:57;;;;;;;6.53;3.00;;;;;;;-5.33;93.11;100117.06;5034076;28;20038;-54
2021/12/26 02:09:23;;;;;;;10.70;5.85;;;;;;;-5.36;94.04;100110.94;5034824;28;20028;-51
2021/12/26 02:11:48;;;;;;;6.50;3.38;;;;;;;-5.39;94.24;100113.38;5034104;28;20125;-52
2021/12/26 02:14:14;;;;;;;12.43;5.07;;;;;;;-5.28;93.60;100117.22;5034164;28;20064;-54
2021/12/26 02:16:40;;;;;;;18.10;7.47;;;;;;;-5.33;93.27;100117.06;5037737;28;20540;-54
2021/12/26 02:19:05;;;;;;;7.00;3.30;;;;;;;-5.29;93.01;100118.06;5053807;28;20055;-51
2021/12/26 02:21:54;;;;;;;7.93;3.05;;;;;;;-5.23;92.69;100124.28;5052394;28;20037;-52
2021/12/26 02:24:26;;;;;;;10.80;4.07;;;;;;;-5.29;92.77;100129.16;5033657;28;20049;-51
2021/12/26 02:29:39;;;;;;;11.38;5.20;;;;;;;-5.31;92.65;100130.78;5034192;28;20043;-53
2021/12/26 02:32:05;;;;;;;8.75;3.58;;;;;;;-5.27;91.77;100127.53;5042495;28;20041;-54
2021/12/26 02:34:31;;;;;;;15.98;7.13;;;;;;;-5.23;91.82;100126.84;5033811;28;20040;-53
2021/12/26 02:36:56;;;;;;;13.90;6.05;;;;;;;-5.19;91.28;100135.50;5033924;28;20037;-52
2021/12/26 02:39:22;;;;;;;14.18;5.30;;;;;;;-5.25;90.84;100146.41;5033786;28;20033;-52
2021/12/26 02:41:47;;;;;;;13.75;5.93;;;;;;;-5.27;90.98;100142.03;5043833;28;20076;-51
2021/12/26 02:44:12;;;;;;;21.70;9.93;;;;;;;-5.27;90.89;100147.16;5038640;28;20472;-52
2021/12/26 02:46:40;;;;;;;14.63;6.75;;;;;;;-5.21;90.54;100148.25;5053441;28;20059;-51
2021/12/26 02:49:06;;;;;;;16.00;7.80;;;;;;;-5.20;90.35;100151.69;5053269;28;20043;-51
2021/12/26 02:51:32;;;;;;;7.75;3.67;;;;;;;-5.25;90.54;100143.84;5052542;28;20033;-52
2021/12/26 02:53:57;;;;;;;14.13;6.25;;;;;;;-5.21;90.19;100152.50;5053359;28;20087;-52
2021/12/26 02:56:23;;;;;;;18.20;8.25;;;;;;;-5.20;90.48;100150.00;5040272;28;20485;-52
2021/12/26 02:58:48;;;;;;;11.60;5.05;;;;;;;-5.20;90.17;100146.56;5037951;28;20033;-54
2021/12/26 03:01:20;;;;;;;10.98;4.43;;;;;;;-5.15;89.94;100146.72;5032999;28;20037;-53
2021/12/26 03:03:45;;;;;;;6.90;3.22;;;;;;;-5.13;89.69;100143.44;5033713;28;20041;-53
2021/12/26 03:07:12;;;;;;;10.82;4.85;;;;;;;-5.22;89.82;100137.97;5033624;28;20030;-52
2021/12/26 03:09:07;;;;;;;7.97;3.33;;;;;;;-5.15;89.67;100137.34;5047208;28;20060;-51
2021/12/26 03:11:32;;;;;;;8.43;3.80;;;;;;;-5.18;89.95;100137.28;5053265;28;20098;-53
2021/12/26 03:13:58;;;;;;;9.98;4.30;;;;;;;-5.19;90.08;100130.38;5053282;28;20400;-52
2021/12/26 03:16:23;;;;;;;6.10;2.70;;;;;;;-5.18;90.12;100142.41;5050098;28;20136;-51
2021/12/26 03:18:49;;;;;;;7.65;3.10;;;;;;;-5.17;90.27;100133.88;5033099;28;20041;-51
2021/12/26 03:21:14;;;;;;;6.35;2.70;;;;;;;-5.07;89.85;100140.22;5032840;28;20041;-53
2021/12/26 03:23:40;;;;;;;9.50;3.65;;;;;;;-5.06;89.83;100137.72;5033231;28;20476;-51
2021/12/26 03:26:07;;;;;;;17.20;7.70;;;;;;;-5.03;89.25;100132.69;5033771;28;20044;-54
2021/12/26 03:28:33;;;;;;;9.38;4.18;;;;;;;-5.07;89.99;100140.22;5048154;28;20033;-52
2021/12/26 03:30:59;;;;;;;5.65;2.65;;;;;;;-5.05;89.81;100142.03;5046579;28;20386;-51
2021/12/26 03:33:26;;;;;;;8.50;3.22;;;;;;;-5.04;90.10;100142.88;5037208;28;20545;-51
2021/12/26 03:35:52;;;;;;;17.55;6.88;;;;;;;-5.01;89.94;100149.00;5037036;28;20034;-53
2021/12/26 03:38:18;;;;;;;15.43;7.40;;;;;;;-4.98;89.77;100150.81;5036093;28;20409;-50
2021/12/26 03:40:45;;;;;;;7.18;3.00;;;;;;;-4.98;89.78;100143.13;5041642;28;20079;-52
2021/12/26 03:43:11;;;;;;;8.35;2.88;;;;;;;-4.91;89.12;100152.75;5056574;28;20029;-51
2021/12/26 03:45:37;;;;;;;6.72;2.85;;;;;;;-4.94;89.13;100142.44;5056970;28;20473;-53
2021/12/26 03:48:04;;;;;;;11.30;4.72;;;;;;;-4.93;89.07;100146.72;5056884;28;20465;-51
2021/12/26 03:50:31;;;;;;;8.85;4.32;;;;;;;-5.01;89.40;100148.13;5050964;28;20043;-52
2021/12/26 03:52:58;;;;;;;8.45;3.78;;;;;;;-4.99;89.66;100144.81;5056277;28;20043;-52
2021/12/26 03:55:27;;;;;;;7.30;3.47;;;;;;;-4.94;89.00;100152.69;5055729;28;20074;-52
2021/12/26 03:57:54;;;;;;;8.75;3.33;;;;;;;-4.91;88.88;100155.31;5046541;28;20037;-51
2021/12/26 04:00:23;;;;;;;7.47;3.53;;;;;;;-4.99;88.85;100151.63;5041116;28;20053;-52
2021/12/26 04:02:49;;;;;;;20.92;8.32;;;;;;;-4.93;88.77;100146.72;5055170;28;20116;-52
2021/12/26 04:05:15;;;;;;;8.57;3.55;;;;;;;-4.95;88.79;100150.91;5052637;28;20037;-52
2021/12/26 04:07:42;;;;;;;3.85;2.38;;;;;;;-4.89;88.45;100145.16;5036455;28;20087;-51
2021/12/26 04:10:08;;;;;;;4.97;2.30;;;;;;;-5.00;88.37;100145.63;5049466;28;20048;-52
2021/12/26 04:12:42;;;;;;;16.92;8.07;;;;;;;-4.94;88.61;100151.81;5053958;28;20047;-52
2021/12/26 04:15:10;;;;;;;8.00;3.38;;;;;;;-4.94;88.14;100139.00;5036494;28;20029;-51
2021/12/26 04:17:36;;;;;;;4.53;2.35;;;;;;;-5.00;88.42;100144.75;5036211;28;20045;-52
2021/12/26 04:20:04;;;;;;;2.50;1.88;;;;;;;-4.98;88.43;100151.69;5052734;28;20028;-53
2021/12/26 04:22:29;;;;;;;5.57;2.20;;;;;;;-5.04;88.84;100153.13;5048803;28;20033;-54
2021/12/26 04:24:55;;;;;;;4.88;1.90;;;;;;;-4.91;88.41;100144.22;5036363;28;20465;-50
2021/12/26 04:27:21;;;;;;;4.28;2.10;;;;;;;-4.99;88.67;100143.94;5036252;28;20075;-53
2021/12/26 04:29:47;;;;;;;5.18;2.90;;;;;;;-5.03;89.08;100137.81;5055333;28;20043;-54
2021/12/26 04:32:13;;;;;;;9.18;3.78;;;;;;;-4.97;88.70;100140.63;5041789;28;20042;-50
2021/12/26 04:34:38;;;;;;;5.55;2.75;;;;;;;-5.01;88.91;100145.56;5041709;28;20044;-55
2021/12/26 04:37:04;;;;;;;8.30;3.60;;;;;;;-4.95;88.56;100135.53;5054509;28;20110;-54
2021/12/26 04:39:29;;;;;;;4.93;2.50;;;;;;;-4.98;89.17;100141.44;5055690;28;20041;-55
2021/12/26 04:41:54;;;;;;;8.70;4.40;;;;;;;-5.02;89.22;100138.72;5055935;28;20361;-51
2021/12/26 04:44:23;;;;;;;6.38;2.47;;;;;;;-5.10;89.58;100146.13;5055626;28;20150;-51
2021/12/26 04:46:49;;;;;;;5.82;2.58;;;;;;;-5.00;89.47;100147.31;5043058;28;20034;-53
2021/12/26 04:49:15;;;;;;;8.80;3.38;;;;;;;-5.00;89.72;100147.31;5050319;28;20041;-54
2021/12/26 04:51:40;;;;;;;4.57;2.60;;;;;;;-5.03;88.96;100144.63;5055457;28;20041;-54
2021/12/26 04:54:05;;;;;;;6.00;2.88;;;;;;;-5.05;89.59;100148.84;5042090;28;20087;-54
2021/12/26 04:56:31;;;;;;;5.43;1.92;;;;;;;-4.98;88.85;100153.38;5035348;28;20036;-53
2021/12/26 04:58:56;;;;;;;5.07;2.45;;;;;;;-5.08;89.35;100158.97;5035363;28;20029;-52
2021/12/26 05:01:22;;;;;;;8.63;3.47;;;;;;;-5.08;89.27;100149.59;5044936;28;20021;-52
2021/12/26 05:03:47;;;;;;;17.90;5.45;;;;;;;-5.13;89.87;100152.81;5055210;28;20567;-54
2021/12/26 05:06:12;;;;;;;14.95;4.28;;;;;;;-5.16;90.39;100150.13;5050493;28;20082;-54
2021/12/26 05:08:38;;;;;;;6.50;3.28;;;;;;;-5.11;89.95;100161.41;5034990;28;20040;-52
2021/12/26 05:11:03;;;;;;;9.13;4.22;;;;;;;-5.10;90.48;100155.50;5035240;28;20041;-53
2021/12/26 05:13:29;;;;;;;5.25;2.40;;;;;;;-5.14;90.56;100156.19;5035357;28;20044;-53
2021/12/26 05:15:54;;;;;;;15.43;5.68;;;;;;;-5.09;90.22;100163.22;5035275;28;20521;-51
2021/12/26 05:18:19;;;;;;;8.20;3.13;;;;;;;-5.11;90.14;100157.16;5035345;28;20034;-52
2021/12/26 05:20:45;;;;;;;5.47;2.53;;;;;;;-5.17;90.92;100163.75;5035316;28;20029;-51
2021/12/26 05:23:11;;;;;;;11.63;4.72;;;;;;;-5.08;90.36;100169.22;5041831;28;20115;-51
2021/12/26 05:25:37;;;;;;;10.18;3.33;;;;;;;-5.06;90.13;100170.16;5055107;28;20049;-52
2021/12/26 05:28:02;;;;;;;5.18;2.67;;;;;;;-5.07;90.50;100170.94;5052571;28;20396;-54
2021/12/26 05:30:28;;;;;;;5.13;2.53;;;;;;;-4.99;89.95;100174.69;5034604;28;20080;-50
2021/12/26 05:32:54;;;;;;;4.22;2.30;;;;;;;-4.99;89.73;100174.69;5046719;28;20040;-52
2021/12/26 05:35:20;;;;;;;7.25;2.95;;;;;;;-5.04;89.80;100171.06;5034763;28;20495;-52
2021/12/26 05:37:46;;;;;;;9.15;3.78;;;;;;;-5.02;89.43;100184.84;5035835;28;20041;-51
2021/12/26 05:40:12;;;;;;;10.57;4.10;;;;;;;-5.08;89.70;100177.78;5034826;28;20042;-54
2021/12/26 05:42:37;;;;;;;9.63;3.97;;;;;;;-5.10;90.24;100191.34;5034779;28;20045;-52
2021/12/26 05:45:05;;;;;;;8.18;2.78;;;;;;;-5.14;90.29;100187.81;5034583;28;20067;-54
2021/12/26 05:47:31;;;;;;;5.78;2.85;;;;;;;-5.17;90.18;100194.50;5033204;28;20432;-55
2021/12/26 05:49:57;;;;;;;6.28;2.60;;;;;;;-5.20;90.34;100180.75;5039699;28;20040;-53
2021/12/26 05:52:22;;;;;;;8.65;3.78;;;;;;;-5.28;91.07;100186.38;5044427;28;20057;-52
2021/12/26 05:54:49;;;;;;;7.40;3.17;;;;;;;-5.21;91.06;100184.13;5034574;28;20029;-51
2021/12/26 05:57:15;;;;;;;18.73;7.43;;;;;;;-5.26;91.35;100185.66;5046720;28;20110;-51
2021/12/26 05:59:41;;;;;;;8.43;4.00;;;;;;;-5.26;91.14;100185.66;5051269;28;20068;-54
2021/12/26 06:02:07;;;;;;;15.48;6.50;;;;;;;-5.20;90.98;100190.13;5039863;28;20064;-54
2021/12/26 06:04:32;;;;;;;7.00;3.65;;;;;;;-5.27;91.20;100183.88;5034769;28;20045;-51
2021/12/26 06:06:58;;;;;;;4.50;2.42;;;;;;;-5.29;91.63;100200.88;5035886;28;20041;-51
2021/12/26 06:09:24;;;;;;;7.30;3.38;;;;;;;-5.28;91.39;100201.75;5052868;28;20041;-51
2021/12/26 06:11:49;;;;;;;6.43;3.35;;;;;;;-5.31;91.24;100204.19;5041732;28;20044;-53
2021/12/26 06:14:15;;;;;;;8.38;4.25;;;;;;;-5.33;91.39;100201.59;5055358;28;20120;-52
2021/12/26 06:16:40;;;;;;;10.18;4.82;;;;;;;-5.40;91.54;100197.03;5057509;28;20358;-55
2021/12/26 06:19:06;;;;;;;8.40;3.63;;;;;;;-5.41;91.76;100190.16;5059056;28;20473;-54
2021/12/26 06:21:31;;;;;;;6.47;3.35;;;;;;;-5.48;92.01;100203.53;5040562;28;20040;-54
2021/12/26 06:23:57;;;;;;;5.32;3.25;;;;;;;-5.54;92.34;100205.88;5034824;28;20430;-51
2021/12/26 06:26:25;;;;;;;7.68;3.00;;;;;;;-5.59;91.99;100194.56;5041165;28;20025;-51
2021/12/26 06:28:51;;;;;;;8.30;3.72;;;;;;;-5.64;92.01;100196.94;5042499;28;20029;-53
2021/12/26 06:31:16;;;;;;;7.20;3.92;;;;;;;-5.68;91.75;100212.97;5035043;28;20053;-51
2021/12/26 06:33:42;;;;;;;9.25;4.28;;;;;;;-5.79;92.28;100202.28;5033775;28;20393;-53
2021/12/26 06:36:09;;;;;;;7.65;3.53;;;;;;;-5.83;92.13;100190.19;5033664;28;20033;-53
2021/12/26 06:38:36;;;;;;;7.38;3.55;;;;;;;-5.77;92.35;100213.47;5038520;28;20044;-51
2021/12/26 06:41:02;;;;;;;8.15;3.70;;;;;;;-5.84;91.90;100203.81;5036881;28;20416;-54
2021/12/26 06:43:28;;;;;;;6.97;3.47;;;;;;;-5.88;92.50;100211.28;5038569;28;20037;-55
2021/12/26 06:45:54;;;;;;;13.02;6.57;;;;;;;-5.90;92.31;100211.25;5035903;28;20480;-54
2021/12/26 06:48:20;;;;;;;8.60;4.30;;;;;;;-5.97;92.55;100211.81;5037642;28;20041;-52
2021/12/26 06:50:47;;;;;;;9.00;4.45;;;;;;;-6.00;92.54;100216.81;5034116;28;20037;-52
2021/12/26 06:53:13;;;;;;;8.73;4.47;;;;;;;-5.96;91.89;100219.56;5035937;28;20113;-53
2021/12/26 06:55:39;;;;;;;10.20;5.15;;;;;;;-6.07;92.50;100231.00;5036812;28;20125;-54
2021/12/26 06:58:05;;;;;;;8.98;4.40;;;;;;;-6.05;92.75;100241.31;5035610;28;20030;-54
2021/12/26 07:00:31;;;;;;;13.55;6.20;;;;;;;-6.06;92.51;100237.91;5033503;28;20107;-51
2021/12/26 07:02:56;;;;;;;12.85;6.75;;;;;;;-6.05;92.60;100238.78;5037235;28;20373;-56
2021/12/26 07:05:22;;;;;;;19.90;6.80;;;;;;;-6.04;92.63;100231.16;5033585;28;20037;-53
2021/12/26 07:07:47;;;;;;;23.60;10.20;;;;;;;-6.05;92.56;100238.78;5049382;28;20060;-52
2021/12/26 07:10:13;;;;;;;15.10;6.35;;;;;;;-5.99;92.94;100237.31;5032421;28;20047;-54
2021/12/26 07:12:39;;;;;;;17.52;7.68;;;;;;;-5.93;92.71;100241.84;5040186;28;20123;-52
2021/12/26 07:15:05;;;;;;;12.75;6.28;;;;;;;-5.96;92.69;100246.81;5051629;28;20459;-54
2021/12/26 07:17:31;;;;;;;14.55;6.43;;;;;;;-5.88;92.63;100248.00;5052916;28;20025;-54
2021/12/26 07:19:56;;;;;;;11.77;5.38;;;;;;;-5.70;92.09;100251.31;5042827;28;20029;-55
2021/12/26 07:22:22;;;;;;;8.82;4.65;;;;;;;-5.64;92.22;100262.63;5039722;28;20473;-55
2021/12/26 07:24:47;;;;;;;12.10;6.07;;;;;;;-5.62;93.75;100256.75;5052083;28;20112;-52
2021/12/26 07:27:13;;;;;;;10.10;5.22;;;;;;;-5.47;94.01;100256.50;5052168;28;20044;-55
2021/12/26 07:29:39;;;;;;;15.70;7.50;;;;;;;-5.24;93.92;100259.97;5049369;28;20465;-55
2021/12/26 07:32:06;;;;;;;30.70;19.08;;;;;;;-5.03;93.07;100270.19;5046593;28;20132;-52
2021/12/26 07:34:33;;;;;;;10.55;5.75;;;;;;;-4.89;92.35;100266.47;5035658;28;20119;-53
2021/12/26 07:36:58;;;;;;;16.40;8.57;;;;;;;-4.86;93.04;100279.41;5049929;28;20437;-53
2021/12/26 07:39:24;;;;;;;10.95;6.05;;;;;;;-4.78;93.40;100277.16;5041124;28;20477;-53
2021/12/26 07:41:49;;;;;;;12.52;6.40;;;;;;;-4.67;93.59;100282.66;5032684;28;20038;-50
2021/12/26 07:44:14;;;;;;;8.20;4.88;;;;;;;-4.52;92.65;100296.06;5044025;28;20033;-54
2021/12/26 07:46:40;;;;;;;27.02;18.83;;;;;;;-4.48;93.15;100285.97;5042236;28;20036;-51
2021/12/26 07:49:05;;;;;;;11.77;5.28;;;;;;;-4.50;93.38;100285.06;5032448;28;20033;-54
2021/12/26 07:51:31;;;;;;;9.40;4.30;;;;;;;-4.41;93.02;100288.78;5036724;28;20041;-53
2021/12/26 07:54:00;;;;;;;11.48;4.38;;;;;;;-4.39;93.72;100288.00;5032797;28;20041;-50
2021/12/26 07:56:25;;;;;;;17.42;8.45;;;;;;;-4.36;94.37;100283.00;5040227;28;20045;-54
2021/12/26 07:58:51;;;;;;;8.65;4.20;;;;;;;-4.27;93.96;100290.13;5037050;28;20041;-51
2021/12/26 08:01:17;;;;;;;11.70;4.95;;;;;;;-4.31;94.30;100304.59;5048730;28;20492;-51
2021/12/26 08:03:42;;;;;;;10.05;4.53;;;;;;;-4.12;93.97;100288.13;5036410;28;20048;-52
2021/12/26 08:06:13;;;;;;;11.93;5.25;;;;;;;-4.04;93.42;100288.41;5049124;28;20064;-53
2021/12/26 08:08:38;;;;;;;13.18;4.95;;;;;;;-4.04;93.98;100293.53;5046401;28;20108;-54
2021/12/26 08:11:04;;;;;;;9.48;4.57;;;;;;;-3.91;93.42;100295.75;5043879;28;20037;-53
2021/12/26 08:13:31;;;;;;;16.20;5.25;;;;;;;-3.91;93.73;100303.44;5045873;28;20498;-53
2021/12/26 08:15:57;;;;;;;9.02;5.22;;;;;;;-3.88;93.58;100300.97;5045570;28;20057;-51
2021/12/26 08:18:22;;;;;;;12.68;4.88;;;;;;;-3.71;nan;100296.41;5039515;28;20036;-51
2021/12/26 08:20:48;;;;;;;12.70;5.63;;;;;;;-3.52;92.76;100292.78;5037998;28;20042;-54
2021/12/26 08:23:14;;;;;;;12.98;5.20;;;;;;;-3.59;93.56;100293.38;5037718;28;20043;-54
2021/12/26 08:25:39;;;;;;;17.90;5.53;;;;;;;-3.42;93.08;100309.38;5047945;28;20111;-54
2021/12/26 08:28:05;;;;;;;20.38;7.03;;;;;;;-3.50;94.20;100301.41;5035860;28;20033;-54
2021/12/26 08:30:30;;;;;;;9.05;4.82;;;;;;;-3.31;94.00;100298.63;5040446;28;20099;-52
2021/12/26 08:32:59;;;;;;;11.32;5.10;;;;;;;-3.37;94.92;100301.00;5038935;28;20038;-52
2021/12/26 08:35:25;;;;;;;15.57;5.43;;;;;;;-3.34;95.31;100298.53;5035889;28;20036;-53
2021/12/26 08:37:52;;;;;;;14.55;6.18;;;;;;;-3.32;95.58;100291.72;5035523;28;20038;-53
2021/12/26 08:40:17;;;;;;;17.05;5.53;;;;;;;-3.17;95.72;100300.78;5045000;28;20037;-54
2021/12/26 08:42:43;;;;;;;15.50;5.47;;;;;;;-3.03;95.43;100299.53;5036961;28;20037;-53
2021/12/26 08:45:09;;;;;;;14.30;5.35;;;;;;;-3.06;95.79;100287.44;5053838;28;20392;-54
2021/12/26 08:47:35;;;;;;;20.70;6.63;;;;;;;-3.06;96.36;100299.41;5049857;28;20408;-48
2021/12/26 08:50:00;;;;;;;14.52;5.57;;;;;;;-3.06;96.33;100307.13;5046556;28;20037;-52
2021/12/26 08:52:26;;;;;;;13.65;5.05;;;;;;;-2.97;96.37;100310.00;5039399;28;20041;-53
2021/12/26 08:54:51;;;;;;;12.93;4.60;;;;;;;-2.79;95.97;100315.72;5058483;28;20029;-54
2021/12/26 08:57:17;;;;;;;13.43;5.03;;;;;;;-2.60;94.77;100321.41;5054904;28;20056;-53
2021/12/26 08:59:43;;;;;;;14.10;5.07;;;;;;;-2.43;93.88;100322.81;5053966;28;20066;-51
2021/12/26 09:02:09;;;;;;;9.02;4.63;;;;;;;-2.39;93.71;100326.34;5055370;28;20430;-53
2021/12/26 09:04:36;;;;;;;14.60;5.55;;;;;;;-2.35;93.76;100334.19;5055438;28;20032;-53
2021/12/26 09:07:03;;;;;;;11.57;6.13;;;;;;;-2.20;93.12;100332.88;5055263;28;20029;-53
2021/12/26 09:09:29;;;;;;;9.48;4.60;;;;;;;-2.27;93.17;100344.72;5054870;28;20073;-51
2021/12/26 09:11:58;;;;;;;10.63;5.75;;;;;;;-2.22;92.76;100329.41;5051877;28;20037;-53
2021/12/26 09:14:24;;;;;;;10.32;4.90;;;;;;;-2.10;92.08;100332.31;5052215;28;20048;-52
2021/12/26 09:16:50;;;;;;;14.00;5.65;;;;;;;-2.17;92.52;100339.00;5049192;28;20037;-54
2021/12/26 09:19:15;;;;;;;16.92;6.07;;;;;;;-2.09;92.20;100332.34;5053231;28;20091;-54
2021/12/26 09:21:40;;;;;;;10.65;5.57;;;;;;;-2.04;91.41;100335.94;5055029;28;20037;-54
2021/12/26 09:24:06;;;;;;;15.25;5.35;;;;;;;-2.18;91.97;100337.25;5054252;28;20457;-50
2021/12/26 09:26:32;;;;;;;12.52;5.70;;;;;;;-2.14;91.66;100331.38;5054837;28;20029;-51
2021/12/26 09:28:58;;;;;;;12.75;6.10;;;;;;;-2.24;91.64;100348.22;5054696;28;20033;-50
2021/12/26 09:31:24;;;;;;;11.20;5.57;;;;;;;-2.26;91.83;100339.59;5054720;28;20041;-53
2021/12/26 09:33:49;;;;;;;15.55;5.22;;;;;;;-2.30;92.50;100345.50;5054809;28;20040;-54
2021/12/26 09:36:15;;;;;;;12.75;5.47;;;;;;;-2.27;92.61;100337.88;5054538;28;20119;-53
2021/12/26 09:38:41;;;;;;;11.63;4.70;;;;;;;-2.10;92.23;100334.91;5054269;28;20536;-51
2021/12/26 09:41:06;;;;;;;8.63;4.85;;;;;;;-2.18;92.25;100331.25;5054206;28;20047;-54
2021/12/26 09:43:32;;;;;;;7.70;4.03;;;;;;;-1.98;91.37;100337.81;5054127;28;20044;-51
2021/12/26 09:45:57;;;;;;;11.07;5.72;;;;;;;-1.95;91.76;100339.63;5054648;28;20033;-54
2021/12/26 09:48:23;;;;;;;9.20;6.00;;;;;;;-1.80;90.65;100340.88;5054538;28;20059;-55
2021/12/26 09:50:48;;;;;;;10.82;7.40;;;;;;;-1.89;90.89;100340.66;5054068;28;20068;-51
2021/12/26 09:53:14;;;;;;;28.08;20.23;;;;;;;-1.86;90.94;100343.31;5053964;28;20491;-54
2021/12/26 09:55:39;;;;;;;11.65;7.95;;;;;;;-1.73;90.27;100332.50;5054090;28;20044;-52
2021/12/26 09:58:05;;;;;;;15.10;4.95;;;;;;;-1.88;90.10;100350.09;5053978;28;20033;-55
2021/12/26 10:00:38;;;;;;;10.02;5.90;;;;;;;-1.84;90.09;100339.06;5054386;28;20158;-54
2021/12/26 10:03:20;;;;;;;13.63;5.80;;;;;;;-1.85;89.71;100341.59;5054069;28;20029;-52
2021/12/26 10:06:08;;;;;;;11.05;6.85;;;;;;;-1.74;90.00;100341.06;5053880;28;20072;-53
2021/12/26 10:08:48;;;;;;;8.25;5.38;;;;;;;-1.75;89.27;100352.22;5053865;28;20088;-54
2021/12/26 10:11:17;;;;;;;10.07;5.07;;;;;;;-1.50;88.50;100355.44;5054131;28;20040;-53
2021/12/26 10:13:42;;;;;;;10.32;4.45;;;;;;;-1.76;88.56;100350.44;5053909;28;20483;-54
2021/12/26 10:16:08;;;;;;;8.27;3.75;;;;;;;-1.81;88.66;100356.31;5053735;28;20021;-54
2021/12/26 10:18:39;;;;;;;7.50;4.10;;;;;;;-1.50;87.94;100350.28;5053593;28;20167;-54
2021/12/26 10:21:25;;;;;;;12.32;4.82;;;;;;;-1.62;87.51;100360.28;5053558;28;20041;-54
2021/12/26 10:23:53;;;;;;;9.18;4.00;;;;;;;-1.63;87.21;100374.88;5053757;28;20048;-54
2021/12/26 10:26:30;;;;;;;6.53;4.15;;;;;;;-1.57;87.83;100367.28;5053717;28;20499;-52
2021/12/26 10:29:07;;;;;;;7.60;4.55;;;;;;;-1.56;87.26;100368.16;5053518;28;20081;-53
2021/12/26 10:31:34;;;;;;;14.82;5.72;;;;;;;-1.70;88.49;100367.78;5053091;28;20552;-53
2021/12/26 10:33:59;;;;;;;14.38;5.57;;;;;;;-1.77;89.46;100364.16;5053547;28;20037;-55
2021/12/26 10:36:27;;;;;;;17.55;8.45;;;;;;;-1.76;89.82;100365.91;5052664;28;20075;-53
2021/12/26 10:39:15;;;;;;;12.05;5.50;;;;;;;-1.58;88.97;100368.13;5053676;28;20024;-54
2021/12/26 10:42:08;;;;;;;15.52;4.93;;;;;;;-1.61;89.90;100359.44;5047971;28;20472;-52
2021/12/26 10:44:41;;;;;;;7.22;4.38;;;;;;;-1.44;88.88;100367.63;5034402;28;20057;-54
2021/12/26 10:47:13;;;;;;;11.48;6.10;;;;;;;-1.52;89.24;100373.47;5033056;28;20037;-52
2021/12/26 10:49:43;;;;;;;9.00;4.93;;;;;;;-1.34;88.63;100367.91;5033148;28;20037;-53
2021/12/26 10:52:18;;;;;;;11.90;6.07;;;;;;;-1.34;88.78;100362.75;5036305;28;20388;-54
2021/12/26 10:54:49;;;;;;;9.02;5.13;;;;;;;-1.28;88.76;100364.59;5045312;28;20048;-54
2021/12/26 10:57:29;;;;;;;13.73;7.25;;;;;;;-1.14;87.85;100359.81;5052869;28;20037;-54
2021/12/26 11:00:21;;;;;;;11.32;6.20;;;;;;;-1.13;87.05;100354.69;5043377;28;20029;-52
2021/12/26 11:02:53;;;;;;;13.23;7.47;;;;;;;-1.17;87.38;100350.28;5033235;28;20124;-53
2021/12/26 11:05:23;;;;;;;10.48;5.80;;;;;;;-1.01;86.49;100364.44;5035913;28;20056;-54
2021/12/26 11:07:57;;;;;;;10.80;5.90;;;;;;;-0.86;85.70;100357.06;5052808;28;20037;-52
2021/12/26 11:10:32;;;;;;;14.00;8.30;;;;;;;-0.96;85.19;100356.81;5053066;28;20051;-51
2021/12/26 11:13:00;;;;;;;13.52;7.03;;;;;;;-0.93;85.16;100368.06;5052715;28;20041;-51
2021/12/26 11:15:32;;;;;;;26.25;14.73;;;;;;;-0.73;85.10;100362.53;5053126;28;20488;-55
2021/12/26 11:18:06;;;;;;;16.70;9.70;;;;;;;-0.66;84.24;100352.38;5053296;28;20048;-54
2021/12/26 11:20:35;;;;;;;11.73;6.85;;;;;;;-0.54;84.27;100355.25;5053119;28;20068;-53
2021/12/26 11:23:09;;;;;;;22.35;11.45;;;;;;;-0.48;84.30;100359.66;5052789;28;20055;-50
2021/12/26 11:25:36;;;;;;;13.38;7.85;;;;;;;-0.36;83.34;100367.69;5052833;28;20041;-54
2021/12/26 11:28:01;;;;;;;9.77;5.47;;;;;;;-0.27;83.04;100367.03;5052807;28;20033;-52